sensor_id;sensor_type;location;lat;lon;timestamp;P1;durP1;ratioP1;P2;durP2;ratioP2
13592;SDS011;6867;50.998;4.250;2022-11-20T00:02:11;42.90;;;23.60;;
13592;SDS011;6867;50.998;4.250;2022-11-20T00:04:38;35.33;;;19.60;;
13592;SDS011;6867;50.998;4.250;2022-11-20T00:07:06;30.00;;;17.03;;
13592;SDS011;6867;50.998;4.250;2022-11-20T00:09:32;33.77;;;17.23;;
13592;SDS011;6867;50.998;4.250;2022-11-20T00:11:59;28.40;;;15.73;;
13592;SDS011;6867;50.998;4.250;2022-11-20T00:14:26;28.97;;;16.33;;
13592;SDS011;6867;50.998;4.250;2022-11-20T00:16:52;36.03;;;18.77;;
13592;SDS011;6867;50.998;4.250;2022-11-20T00:19:19;30.93;;;16.70;;
13592;SDS011;6867;50.998;4.250;2022-11-20T00:21:45;30.50;;;16.40;;
13592;SDS011;6867;50.998;4.250;2022-11-20T00:24:14;29.17;;;16.50;;
13592;SDS011;6867;50.998;4.250;2022-11-20T00:26:40;32.13;;;16.50;;
13592;SDS011;6867;50.998;4.250;2022-11-20T00:29:08;28.77;;;16.13;;
13592;SDS011;6867;50.998;4.250;2022-11-20T00:31:35;33.10;;;16.60;;
13592;SDS011;6867;50.998;4.250;2022-11-20T00:34:02;37.07;;;15.53;;
13592;SDS011;6867;50.998;4.250;2022-11-20T00:36:31;33.57;;;16.47;;
13592;SDS011;6867;50.998;4.250;2022-11-20T00:38:59;32.40;;;16.87;;
13592;SDS011;6867;50.998;4.250;2022-11-20T00:41:28;39.53;;;17.90;;
13592;SDS011;6867;50.998;4.250;2022-11-20T00:43:56;31.23;;;17.07;;
13592;SDS011;6867;50.998;4.250;2022-11-20T00:46:23;36.00;;;17.70;;
13592;SDS011;6867;50.998;4.250;2022-11-20T00:48:51;32.33;;;18.60;;
13592;SDS011;6867;50.998;4.250;2022-11-20T00:51:18;41.53;;;20.07;;
13592;SDS011;6867;50.998;4.250;2022-11-20T00:53:46;37.77;;;19.77;;
13592;SDS011;6867;50.998;4.250;2022-11-20T00:56:14;34.77;;;19.50;;
13592;SDS011;6867;50.998;4.250;2022-11-20T00:58:43;34.77;;;18.67;;
13592;SDS011;6867;50.998;4.250;2022-11-20T01:01:13;39.27;;;19.07;;
13592;SDS011;6867;50.998;4.250;2022-11-20T01:03:43;35.73;;;19.10;;
13592;SDS011;6867;50.998;4.250;2022-11-20T01:06:13;38.37;;;20.53;;
13592;SDS011;6867;50.998;4.250;2022-11-20T01:08:41;37.97;;;18.63;;
13592;SDS011;6867;50.998;4.250;2022-11-20T01:11:10;37.77;;;18.07;;
13592;SDS011;6867;50.998;4.250;2022-11-20T01:13:38;35.80;;;17.87;;
13592;SDS011;6867;50.998;4.250;2022-11-20T01:16:08;37.63;;;18.90;;
13592;SDS011;6867;50.998;4.250;2022-11-20T01:18:37;34.00;;;18.80;;
13592;SDS011;6867;50.998;4.250;2022-11-20T01:21:05;34.37;;;18.13;;
13592;SDS011;6867;50.998;4.250;2022-11-20T01:23:33;37.00;;;17.20;;
13592;SDS011;6867;50.998;4.250;2022-11-20T01:26:01;37.80;;;18.07;;
13592;SDS011;6867;50.998;4.250;2022-11-20T01:28:30;38.73;;;19.23;;
13592;SDS011;6867;50.998;4.250;2022-11-20T01:30:56;43.57;;;18.63;;
13592;SDS011;6867;50.998;4.250;2022-11-20T01:33:25;37.67;;;19.57;;
13592;SDS011;6867;50.998;4.250;2022-11-20T01:35:51;37.57;;;19.80;;
13592;SDS011;6867;50.998;4.250;2022-11-20T01:38:19;37.87;;;18.63;;
13592;SDS011;6867;50.998;4.250;2022-11-20T01:40:53;36.20;;;18.53;;
13592;SDS011;6867;50.998;4.250;2022-11-20T01:43:20;36.57;;;18.07;;
13592;SDS011;6867;50.998;4.250;2022-11-20T01:45:59;32.27;;;17.57;;
13592;SDS011;6867;50.998;4.250;2022-11-20T01:48:32;38.17;;;19.03;;
13592;SDS011;6867;50.998;4.250;2022-11-20T01:51:02;40.03;;;19.37;;
13592;SDS011;6867;50.998;4.250;2022-11-20T01:53:33;35.57;;;17.43;;
13592;SDS011;6867;50.998;4.250;2022-11-20T01:56:02;35.43;;;18.77;;
13592;SDS011;6867;50.998;4.250;2022-11-20T01:58:32;37.00;;;19.03;;
13592;SDS011;6867;50.998;4.250;2022-11-20T02:01:02;45.47;;;18.50;;
13592;SDS011;6867;50.998;4.250;2022-11-20T02:03:31;32.13;;;17.73;;
13592;SDS011;6867;50.998;4.250;2022-11-20T02:06:01;35.63;;;18.20;;
13592;SDS011;6867;50.998;4.250;2022-11-20T02:08:33;39.50;;;18.10;;
13592;SDS011;6867;50.998;4.250;2022-11-20T02:11:02;35.37;;;17.87;;
13592;SDS011;6867;50.998;4.250;2022-11-20T02:13:29;32.07;;;17.93;;
13592;SDS011;6867;50.998;4.250;2022-11-20T02:16:12;37.13;;;18.67;;
13592;SDS011;6867;50.998;4.250;2022-11-20T02:18:43;35.53;;;18.90;;
13592;SDS011;6867;50.998;4.250;2022-11-20T02:21:13;36.73;;;18.63;;
13592;SDS011;6867;50.998;4.250;2022-11-20T02:26:39;35.87;;;19.47;;
13592;SDS011;6867;50.998;4.250;2022-11-20T02:29:10;38.03;;;19.17;;
13592;SDS011;6867;50.998;4.250;2022-11-20T02:31:38;43.17;;;20.70;;
13592;SDS011;6867;50.998;4.250;2022-11-20T02:34:07;46.83;;;20.30;;
13592;SDS011;6867;50.998;4.250;2022-11-20T02:36:34;35.97;;;19.37;;
13592;SDS011;6867;50.998;4.250;2022-11-20T02:39:03;42.90;;;20.10;;
13592;SDS011;6867;50.998;4.250;2022-11-20T02:41:32;35.93;;;19.03;;
13592;SDS011;6867;50.998;4.250;2022-11-20T02:44:00;39.03;;;19.83;;
13592;SDS011;6867;50.998;4.250;2022-11-20T02:46:27;36.47;;;19.07;;
13592;SDS011;6867;50.998;4.250;2022-11-20T02:48:54;36.77;;;19.57;;
13592;SDS011;6867;50.998;4.250;2022-11-20T02:51:21;33.80;;;17.53;;
13592;SDS011;6867;50.998;4.250;2022-11-20T02:53:48;40.23;;;19.63;;
13592;SDS011;6867;50.998;4.250;2022-11-20T02:56:14;35.60;;;18.90;;
13592;SDS011;6867;50.998;4.250;2022-11-20T02:58:43;39.03;;;18.90;;
13592;SDS011;6867;50.998;4.250;2022-11-20T03:01:09;40.70;;;20.07;;
13592;SDS011;6867;50.998;4.250;2022-11-20T03:03:36;41.30;;;18.50;;
13592;SDS011;6867;50.998;4.250;2022-11-20T03:06:03;44.63;;;21.43;;
13592;SDS011;6867;50.998;4.250;2022-11-20T03:08:30;44.30;;;21.03;;
13592;SDS011;6867;50.998;4.250;2022-11-20T03:10:56;45.40;;;20.67;;
13592;SDS011;6867;50.998;4.250;2022-11-20T03:13:27;42.80;;;19.77;;
13592;SDS011;6867;50.998;4.250;2022-11-20T03:15:55;36.50;;;20.77;;
13592;SDS011;6867;50.998;4.250;2022-11-20T03:18:22;47.67;;;22.20;;
13592;SDS011;6867;50.998;4.250;2022-11-20T03:20:49;39.57;;;20.50;;
13592;SDS011;6867;50.998;4.250;2022-11-20T03:23:15;42.27;;;20.50;;
13592;SDS011;6867;50.998;4.250;2022-11-20T03:25:42;38.03;;;20.47;;
13592;SDS011;6867;50.998;4.250;2022-11-20T03:28:09;45.47;;;20.93;;
13592;SDS011;6867;50.998;4.250;2022-11-20T03:30:35;44.47;;;21.07;;
13592;SDS011;6867;50.998;4.250;2022-11-20T03:33:03;41.50;;;19.07;;
13592;SDS011;6867;50.998;4.250;2022-11-20T03:35:30;43.33;;;19.40;;
13592;SDS011;6867;50.998;4.250;2022-11-20T03:37:57;36.80;;;19.33;;
13592;SDS011;6867;50.998;4.250;2022-11-20T03:40:23;36.37;;;19.40;;
13592;SDS011;6867;50.998;4.250;2022-11-20T03:42:50;42.40;;;19.67;;
13592;SDS011;6867;50.998;4.250;2022-11-20T03:45:17;40.37;;;20.20;;
13592;SDS011;6867;50.998;4.250;2022-11-20T03:47:44;39.60;;;20.37;;
13592;SDS011;6867;50.998;4.250;2022-11-20T03:50:13;43.27;;;20.27;;
13592;SDS011;6867;50.998;4.250;2022-11-20T03:52:40;44.23;;;19.77;;
13592;SDS011;6867;50.998;4.250;2022-11-20T03:55:07;39.00;;;19.80;;
13592;SDS011;6867;50.998;4.250;2022-11-20T03:57:34;42.67;;;19.00;;
13592;SDS011;6867;50.998;4.250;2022-11-20T04:00:01;44.00;;;18.77;;
13592;SDS011;6867;50.998;4.250;2022-11-20T04:02:28;41.50;;;18.97;;
13592;SDS011;6867;50.998;4.250;2022-11-20T04:04:54;39.73;;;19.33;;
13592;SDS011;6867;50.998;4.250;2022-11-20T04:07:22;39.43;;;18.00;;
13592;SDS011;6867;50.998;4.250;2022-11-20T04:09:49;35.63;;;17.67;;
13592;SDS011;6867;50.998;4.250;2022-11-20T04:12:15;36.33;;;18.10;;
13592;SDS011;6867;50.998;4.250;2022-11-20T04:14:42;37.77;;;16.83;;
13592;SDS011;6867;50.998;4.250;2022-11-20T04:17:09;37.87;;;17.97;;
13592;SDS011;6867;50.998;4.250;2022-11-20T04:19:36;34.63;;;17.67;;
13592;SDS011;6867;50.998;4.250;2022-11-20T04:22:02;36.27;;;17.83;;
13592;SDS011;6867;50.998;4.250;2022-11-20T04:24:30;34.97;;;17.70;;
13592;SDS011;6867;50.998;4.250;2022-11-20T04:26:57;33.93;;;17.17;;
13592;SDS011;6867;50.998;4.250;2022-11-20T04:29:23;32.07;;;16.60;;
13592;SDS011;6867;50.998;4.250;2022-11-20T04:31:50;39.53;;;17.47;;
13592;SDS011;6867;50.998;4.250;2022-11-20T04:34:17;34.50;;;16.87;;
13592;SDS011;6867;50.998;4.250;2022-11-20T04:36:43;36.53;;;17.27;;
13592;SDS011;6867;50.998;4.250;2022-11-20T04:39:13;33.63;;;16.83;;
13592;SDS011;6867;50.998;4.250;2022-11-20T04:41:43;42.93;;;19.07;;
13592;SDS011;6867;50.998;4.250;2022-11-20T04:44:10;37.30;;;18.93;;
13592;SDS011;6867;50.998;4.250;2022-11-20T04:46:37;37.83;;;18.13;;
13592;SDS011;6867;50.998;4.250;2022-11-20T04:49:06;39.27;;;19.53;;
13592;SDS011;6867;50.998;4.250;2022-11-20T04:51:33;41.33;;;19.80;;
13592;SDS011;6867;50.998;4.250;2022-11-20T04:54:00;47.43;;;20.73;;
13592;SDS011;6867;50.998;4.250;2022-11-20T04:56:27;42.80;;;19.13;;
13592;SDS011;6867;50.998;4.250;2022-11-20T04:58:55;37.33;;;19.27;;
13592;SDS011;6867;50.998;4.250;2022-11-20T05:01:26;36.37;;;16.57;;
13592;SDS011;6867;50.998;4.250;2022-11-20T05:03:53;47.43;;;19.43;;
13592;SDS011;6867;50.998;4.250;2022-11-20T05:06:20;39.40;;;19.20;;
13592;SDS011;6867;50.998;4.250;2022-11-20T05:08:47;42.63;;;20.10;;
13592;SDS011;6867;50.998;4.250;2022-11-20T05:11:14;39.07;;;19.47;;
13592;SDS011;6867;50.998;4.250;2022-11-20T05:13:42;37.47;;;19.00;;
13592;SDS011;6867;50.998;4.250;2022-11-20T05:16:11;43.50;;;18.70;;
13592;SDS011;6867;50.998;4.250;2022-11-20T05:18:39;37.37;;;18.40;;
13592;SDS011;6867;50.998;4.250;2022-11-20T05:21:07;37.10;;;18.83;;
13592;SDS011;6867;50.998;4.250;2022-11-20T05:23:34;42.77;;;19.30;;
13592;SDS011;6867;50.998;4.250;2022-11-20T05:26:02;37.07;;;18.03;;
13592;SDS011;6867;50.998;4.250;2022-11-20T05:28:29;37.60;;;18.53;;
13592;SDS011;6867;50.998;4.250;2022-11-20T05:31:03;35.43;;;17.90;;
13592;SDS011;6867;50.998;4.250;2022-11-20T05:33:31;45.67;;;19.87;;
13592;SDS011;6867;50.998;4.250;2022-11-20T05:35:58;39.60;;;17.77;;
13592;SDS011;6867;50.998;4.250;2022-11-20T05:38:25;40.10;;;18.33;;
13592;SDS011;6867;50.998;4.250;2022-11-20T05:40:52;40.20;;;19.53;;
13592;SDS011;6867;50.998;4.250;2022-11-20T05:43:18;41.20;;;18.63;;
13592;SDS011;6867;50.998;4.250;2022-11-20T05:45:51;38.17;;;18.93;;
13592;SDS011;6867;50.998;4.250;2022-11-20T05:48:18;36.23;;;18.07;;
13592;SDS011;6867;50.998;4.250;2022-11-20T05:50:46;38.13;;;19.03;;
13592;SDS011;6867;50.998;4.250;2022-11-20T05:53:13;36.13;;;18.47;;
13592;SDS011;6867;50.998;4.250;2022-11-20T05:55:40;34.07;;;16.83;;
13592;SDS011;6867;50.998;4.250;2022-11-20T05:58:06;36.87;;;18.20;;
13592;SDS011;6867;50.998;4.250;2022-11-20T06:00:33;35.97;;;17.23;;
13592;SDS011;6867;50.998;4.250;2022-11-20T06:03:00;42.17;;;18.47;;
13592;SDS011;6867;50.998;4.250;2022-11-20T06:05:27;37.97;;;17.60;;
13592;SDS011;6867;50.998;4.250;2022-11-20T06:07:56;37.43;;;17.40;;
13592;SDS011;6867;50.998;4.250;2022-11-20T06:10:22;42.10;;;18.83;;
13592;SDS011;6867;50.998;4.250;2022-11-20T06:12:49;42.07;;;18.23;;
13592;SDS011;6867;50.998;4.250;2022-11-20T06:15:16;41.23;;;18.17;;
13592;SDS011;6867;50.998;4.250;2022-11-20T06:17:43;42.60;;;18.40;;
13592;SDS011;6867;50.998;4.250;2022-11-20T06:20:09;39.13;;;18.57;;
13592;SDS011;6867;50.998;4.250;2022-11-20T06:22:36;40.67;;;18.77;;
13592;SDS011;6867;50.998;4.250;2022-11-20T06:25:04;45.83;;;20.07;;
13592;SDS011;6867;50.998;4.250;2022-11-20T06:27:31;41.53;;;19.07;;
13592;SDS011;6867;50.998;4.250;2022-11-20T06:29:58;48.03;;;21.23;;
13592;SDS011;6867;50.998;4.250;2022-11-20T06:32:25;44.43;;;19.07;;
13592;SDS011;6867;50.998;4.250;2022-11-20T06:34:51;55.23;;;21.03;;
13592;SDS011;6867;50.998;4.250;2022-11-20T06:37:18;50.27;;;20.13;;
13592;SDS011;6867;50.998;4.250;2022-11-20T06:39:44;48.13;;;19.37;;
13592;SDS011;6867;50.998;4.250;2022-11-20T06:42:12;52.17;;;20.93;;
13592;SDS011;6867;50.998;4.250;2022-11-20T06:44:39;46.23;;;20.03;;
13592;SDS011;6867;50.998;4.250;2022-11-20T06:47:06;48.70;;;21.23;;
13592;SDS011;6867;50.998;4.250;2022-11-20T06:49:32;55.90;;;21.87;;
13592;SDS011;6867;50.998;4.250;2022-11-20T06:52:02;57.43;;;21.20;;
13592;SDS011;6867;50.998;4.250;2022-11-20T06:54:28;53.60;;;19.73;;
13592;SDS011;6867;50.998;4.250;2022-11-20T06:56:55;58.57;;;21.77;;
13592;SDS011;6867;50.998;4.250;2022-11-20T06:59:23;60.03;;;20.53;;
13592;SDS011;6867;50.998;4.250;2022-11-20T07:01:50;53.90;;;21.70;;
13592;SDS011;6867;50.998;4.250;2022-11-20T07:04:16;55.00;;;20.07;;
13592;SDS011;6867;50.998;4.250;2022-11-20T07:06:43;59.50;;;24.57;;
13592;SDS011;6867;50.998;4.250;2022-11-20T07:09:10;62.00;;;24.87;;
13592;SDS011;6867;50.998;4.250;2022-11-20T07:11:37;52.47;;;21.57;;
13592;SDS011;6867;50.998;4.250;2022-11-20T07:14:03;64.57;;;25.20;;
13592;SDS011;6867;50.998;4.250;2022-11-20T07:16:31;64.53;;;26.40;;
13592;SDS011;6867;50.998;4.250;2022-11-20T07:18:58;76.23;;;28.37;;
13592;SDS011;6867;50.998;4.250;2022-11-20T07:21:25;77.37;;;30.10;;
13592;SDS011;6867;50.998;4.250;2022-11-20T07:23:51;82.90;;;33.97;;
13592;SDS011;6867;50.998;4.250;2022-11-20T07:26:18;73.00;;;29.37;;
13592;SDS011;6867;50.998;4.250;2022-11-20T07:28:45;87.50;;;35.23;;
13592;SDS011;6867;50.998;4.250;2022-11-20T07:31:11;67.20;;;26.43;;
13592;SDS011;6867;50.998;4.250;2022-11-20T07:33:39;78.20;;;32.37;;
13592;SDS011;6867;50.998;4.250;2022-11-20T07:36:07;71.20;;;28.57;;
13592;SDS011;6867;50.998;4.250;2022-11-20T07:38:34;88.47;;;40.63;;
13592;SDS011;6867;50.998;4.250;2022-11-20T07:41:00;80.77;;;37.83;;
13592;SDS011;6867;50.998;4.250;2022-11-20T07:43:27;110.87;;;48.10;;
13592;SDS011;6867;50.998;4.250;2022-11-20T07:45:54;101.53;;;41.00;;
13592;SDS011;6867;50.998;4.250;2022-11-20T07:48:22;142.67;;;59.27;;
13592;SDS011;6867;50.998;4.250;2022-11-20T07:50:52;100.60;;;43.37;;
13592;SDS011;6867;50.998;4.250;2022-11-20T07:53:19;84.70;;;32.27;;
13592;SDS011;6867;50.998;4.250;2022-11-20T07:55:46;116.50;;;53.00;;
13592;SDS011;6867;50.998;4.250;2022-11-20T07:58:13;112.63;;;50.97;;
13592;SDS011;6867;50.998;4.250;2022-11-20T08:00:40;71.73;;;31.47;;
13592;SDS011;6867;50.998;4.250;2022-11-20T08:03:07;75.07;;;32.57;;
13592;SDS011;6867;50.998;4.250;2022-11-20T08:05:34;68.37;;;28.23;;
13592;SDS011;6867;50.998;4.250;2022-11-20T08:08:02;58.13;;;26.23;;
13592;SDS011;6867;50.998;4.250;2022-11-20T08:10:29;66.13;;;30.33;;
13592;SDS011;6867;50.998;4.250;2022-11-20T08:12:55;55.07;;;25.30;;
13592;SDS011;6867;50.998;4.250;2022-11-20T08:15:39;61.03;;;23.97;;
13592;SDS011;6867;50.998;4.250;2022-11-20T08:18:07;50.93;;;22.13;;
13592;SDS011;6867;50.998;4.250;2022-11-20T08:20:35;76.07;;;33.77;;
13592;SDS011;6867;50.998;4.250;2022-11-20T08:23:04;66.17;;;28.73;;
13592;SDS011;6867;50.998;4.250;2022-11-20T08:25:32;59.63;;;26.10;;
13592;SDS011;6867;50.998;4.250;2022-11-20T08:28:00;57.17;;;23.63;;
13592;SDS011;6867;50.998;4.250;2022-11-20T08:30:27;76.83;;;32.73;;
13592;SDS011;6867;50.998;4.250;2022-11-20T08:32:54;66.13;;;25.77;;
13592;SDS011;6867;50.998;4.250;2022-11-20T08:35:26;83.80;;;35.17;;
13592;SDS011;6867;50.998;4.250;2022-11-20T08:37:53;70.63;;;31.13;;
13592;SDS011;6867;50.998;4.250;2022-11-20T08:40:21;70.10;;;31.30;;
13592;SDS011;6867;50.998;4.250;2022-11-20T08:42:48;68.37;;;31.97;;
13592;SDS011;6867;50.998;4.250;2022-11-20T08:45:16;63.37;;;29.83;;
13592;SDS011;6867;50.998;4.250;2022-11-20T08:47:44;46.73;;;19.53;;
13592;SDS011;6867;50.998;4.250;2022-11-20T08:50:11;51.33;;;20.63;;
13592;SDS011;6867;50.998;4.250;2022-11-20T08:52:40;47.83;;;18.77;;
13592;SDS011;6867;50.998;4.250;2022-11-20T08:55:07;47.40;;;18.80;;
13592;SDS011;6867;50.998;4.250;2022-11-20T08:57:37;43.67;;;18.77;;
13592;SDS011;6867;50.998;4.250;2022-11-20T09:00:04;43.87;;;19.17;;
13592;SDS011;6867;50.998;4.250;2022-11-20T09:02:33;44.63;;;17.23;;
13592;SDS011;6867;50.998;4.250;2022-11-20T09:05:00;43.37;;;17.90;;
13592;SDS011;6867;50.998;4.250;2022-11-20T09:07:28;42.50;;;15.70;;
13592;SDS011;6867;50.998;4.250;2022-11-20T09:09:55;47.30;;;18.33;;
13592;SDS011;6867;50.998;4.250;2022-11-20T09:12:22;45.70;;;17.47;;
13592;SDS011;6867;50.998;4.250;2022-11-20T09:14:50;46.07;;;18.73;;
13592;SDS011;6867;50.998;4.250;2022-11-20T09:17:16;43.83;;;16.63;;
13592;SDS011;6867;50.998;4.250;2022-11-20T09:19:43;45.63;;;17.40;;
13592;SDS011;6867;50.998;4.250;2022-11-20T09:22:10;46.90;;;16.83;;
13592;SDS011;6867;50.998;4.250;2022-11-20T09:24:37;42.87;;;16.53;;
13592;SDS011;6867;50.998;4.250;2022-11-20T09:27:04;41.13;;;15.70;;
13592;SDS011;6867;50.998;4.250;2022-11-20T09:29:30;38.93;;;16.17;;
13592;SDS011;6867;50.998;4.250;2022-11-20T09:31:59;41.87;;;15.43;;
13592;SDS011;6867;50.998;4.250;2022-11-20T09:34:25;36.47;;;14.23;;
13592;SDS011;6867;50.998;4.250;2022-11-20T09:36:52;36.77;;;14.33;;
13592;SDS011;6867;50.998;4.250;2022-11-20T09:39:19;35.63;;;14.70;;
13592;SDS011;6867;50.998;4.250;2022-11-20T09:41:49;38.40;;;15.83;;
13592;SDS011;6867;50.998;4.250;2022-11-20T09:44:40;33.93;;;14.40;;
13592;SDS011;6867;50.998;4.250;2022-11-20T09:47:22;37.50;;;15.20;;
13592;SDS011;6867;50.998;4.250;2022-11-20T09:49:59;34.20;;;13.60;;
13592;SDS011;6867;50.998;4.250;2022-11-20T09:52:40;28.93;;;13.80;;
13592;SDS011;6867;50.998;4.250;2022-11-20T09:55:14;34.50;;;14.47;;
13592;SDS011;6867;50.998;4.250;2022-11-20T09:57:42;31.63;;;15.40;;
13592;SDS011;6867;50.998;4.250;2022-11-20T10:00:13;44.73;;;19.97;;
13592;SDS011;6867;50.998;4.250;2022-11-20T10:02:44;45.03;;;21.67;;
13592;SDS011;6867;50.998;4.250;2022-11-20T10:05:16;36.70;;;18.90;;
13592;SDS011;6867;50.998;4.250;2022-11-20T10:07:47;41.83;;;19.00;;
13592;SDS011;6867;50.998;4.250;2022-11-20T10:10:21;34.67;;;17.50;;
13592;SDS011;6867;50.998;4.250;2022-11-20T10:13:02;41.17;;;18.40;;
13592;SDS011;6867;50.998;4.250;2022-11-20T10:15:41;52.73;;;28.33;;
13592;SDS011;6867;50.998;4.250;2022-11-20T10:18:23;48.17;;;24.47;;
13592;SDS011;6867;50.998;4.250;2022-11-20T10:21:03;46.70;;;24.70;;
13592;SDS011;6867;50.998;4.250;2022-11-20T10:26:31;32.87;;;15.70;;
13592;SDS011;6867;50.998;4.250;2022-11-20T10:29:10;35.77;;;18.23;;
13592;SDS011;6867;50.998;4.250;2022-11-20T10:31:39;31.20;;;13.47;;
13592;SDS011;6867;50.998;4.250;2022-11-20T10:34:12;23.97;;;12.53;;
13592;SDS011;6867;50.998;4.250;2022-11-20T10:36:45;26.33;;;10.87;;
13592;SDS011;6867;50.998;4.250;2022-11-20T10:39:19;21.23;;;10.30;;
13592;SDS011;6867;50.998;4.250;2022-11-20T10:41:51;17.80;;;9.40;;
13592;SDS011;6867;50.998;4.250;2022-11-20T10:44:19;25.37;;;11.17;;
13592;SDS011;6867;50.998;4.250;2022-11-20T10:47:03;17.53;;;9.77;;
13592;SDS011;6867;50.998;4.250;2022-11-20T10:49:32;17.53;;;9.10;;
13592;SDS011;6867;50.998;4.250;2022-11-20T10:52:03;16.63;;;8.20;;
13592;SDS011;6867;50.998;4.250;2022-11-20T10:54:36;16.30;;;8.07;;
13592;SDS011;6867;50.998;4.250;2022-11-20T10:57:17;12.77;;;7.27;;
13592;SDS011;6867;50.998;4.250;2022-11-20T10:59:59;13.80;;;6.90;;
13592;SDS011;6867;50.998;4.250;2022-11-20T11:02:31;12.43;;;6.27;;
13592;SDS011;6867;50.998;4.250;2022-11-20T11:05:04;14.47;;;6.17;;
13592;SDS011;6867;50.998;4.250;2022-11-20T11:07:38;12.93;;;6.17;;
13592;SDS011;6867;50.998;4.250;2022-11-20T11:10:12;11.03;;;5.43;;
13592;SDS011;6867;50.998;4.250;2022-11-20T11:12:43;13.43;;;5.23;;
13592;SDS011;6867;50.998;4.250;2022-11-20T11:15:12;9.60;;;4.33;;
13592;SDS011;6867;50.998;4.250;2022-11-20T11:17:46;10.03;;;4.30;;
13592;SDS011;6867;50.998;4.250;2022-11-20T11:20:18;7.10;;;4.10;;
13592;SDS011;6867;50.998;4.250;2022-11-20T11:22:46;10.27;;;4.07;;
13592;SDS011;6867;50.998;4.250;2022-11-20T11:25:21;5.67;;;3.30;;
13592;SDS011;6867;50.998;4.250;2022-11-20T11:27:53;6.20;;;3.20;;
13592;SDS011;6867;50.998;4.250;2022-11-20T11:30:22;7.97;;;3.67;;
13592;SDS011;6867;50.998;4.250;2022-11-20T11:32:49;7.07;;;3.50;;
13592;SDS011;6867;50.998;4.250;2022-11-20T11:35:22;7.43;;;3.30;;
13592;SDS011;6867;50.998;4.250;2022-11-20T11:37:51;6.97;;;3.20;;
13592;SDS011;6867;50.998;4.250;2022-11-20T11:40:20;4.23;;;2.47;;
13592;SDS011;6867;50.998;4.250;2022-11-20T11:42:51;6.37;;;3.33;;
13592;SDS011;6867;50.998;4.250;2022-11-20T11:45:20;6.57;;;2.43;;
13592;SDS011;6867;50.998;4.250;2022-11-20T11:47:47;3.57;;;2.50;;
13592;SDS011;6867;50.998;4.250;2022-11-20T11:50:18;4.07;;;2.13;;
13592;SDS011;6867;50.998;4.250;2022-11-20T11:52:51;5.47;;;2.37;;
13592;SDS011;6867;50.998;4.250;2022-11-20T11:55:26;3.03;;;2.10;;
13592;SDS011;6867;50.998;4.250;2022-11-20T11:57:59;3.37;;;2.40;;
13592;SDS011;6867;50.998;4.250;2022-11-20T12:00:35;6.13;;;2.30;;
13592;SDS011;6867;50.998;4.250;2022-11-20T12:03:08;3.37;;;1.80;;
13592;SDS011;6867;50.998;4.250;2022-11-20T12:05:43;3.60;;;2.00;;
13592;SDS011;6867;50.998;4.250;2022-11-20T12:08:15;2.87;;;2.03;;
13592;SDS011;6867;50.998;4.250;2022-11-20T12:10:48;3.50;;;1.87;;
13592;SDS011;6867;50.998;4.250;2022-11-20T12:13:25;4.37;;;2.00;;
13592;SDS011;6867;50.998;4.250;2022-11-20T12:16:02;4.07;;;2.00;;
13592;SDS011;6867;50.998;4.250;2022-11-20T12:18:30;6.73;;;1.90;;
13592;SDS011;6867;50.998;4.250;2022-11-20T12:21:01;8.20;;;2.53;;
13592;SDS011;6867;50.998;4.250;2022-11-20T12:23:40;4.87;;;2.30;;
13592;SDS011;6867;50.998;4.250;2022-11-20T12:26:18;4.23;;;2.03;;
13592;SDS011;6867;50.998;4.250;2022-11-20T12:28:53;5.83;;;2.20;;
13592;SDS011;6867;50.998;4.250;2022-11-20T12:31:31;3.77;;;1.77;;
13592;SDS011;6867;50.998;4.250;2022-11-20T12:34:13;4.23;;;1.90;;
13592;SDS011;6867;50.998;4.250;2022-11-20T12:36:51;6.87;;;2.97;;
13592;SDS011;6867;50.998;4.250;2022-11-20T12:39:32;6.93;;;2.60;;
13592;SDS011;6867;50.998;4.250;2022-11-20T12:45:26;8.60;;;2.80;;
13592;SDS011;6867;50.998;4.250;2022-11-20T12:48:06;3.97;;;2.77;;
13592;SDS011;6867;50.998;4.250;2022-11-20T12:50:49;5.93;;;2.97;;
13592;SDS011;6867;50.998;4.250;2022-11-20T12:53:27;7.13;;;3.50;;
13592;SDS011;6867;50.998;4.250;2022-11-20T12:56:03;8.70;;;3.13;;
13592;SDS011;6867;50.998;4.250;2022-11-20T12:58:44;7.60;;;4.00;;
13592;SDS011;6867;50.998;4.250;2022-11-20T13:01:20;9.77;;;4.23;;
13592;SDS011;6867;50.998;4.250;2022-11-20T13:04:09;8.20;;;4.20;;
13592;SDS011;6867;50.998;4.250;2022-11-20T13:06:45;8.77;;;4.47;;
13592;SDS011;6867;50.998;4.250;2022-11-20T13:09:13;6.33;;;3.47;;
13592;SDS011;6867;50.998;4.250;2022-11-20T13:11:47;5.07;;;3.33;;
13592;SDS011;6867;50.998;4.250;2022-11-20T13:14:24;8.63;;;3.90;;
13592;SDS011;6867;50.998;4.250;2022-11-20T13:16:58;7.63;;;3.73;;
13592;SDS011;6867;50.998;4.250;2022-11-20T13:19:30;7.80;;;3.73;;
13592;SDS011;6867;50.998;4.250;2022-11-20T13:21:58;5.07;;;3.17;;
13592;SDS011;6867;50.998;4.250;2022-11-20T13:24:25;6.67;;;3.60;;
13592;SDS011;6867;50.998;4.250;2022-11-20T13:27:03;6.23;;;2.93;;
13592;SDS011;6867;50.998;4.250;2022-11-20T13:29:46;9.27;;;3.77;;
13592;SDS011;6867;50.998;4.250;2022-11-20T13:32:24;5.13;;;4.17;;
13592;SDS011;6867;50.998;4.250;2022-11-20T13:34:53;9.03;;;3.77;;
13592;SDS011;6867;50.998;4.250;2022-11-20T13:37:25;6.43;;;3.37;;
13592;SDS011;6867;50.998;4.250;2022-11-20T13:40:04;6.10;;;3.40;;
13592;SDS011;6867;50.998;4.250;2022-11-20T13:42:33;6.40;;;3.30;;
13592;SDS011;6867;50.998;4.250;2022-11-20T13:45:07;4.40;;;3.40;;
13592;SDS011;6867;50.998;4.250;2022-11-20T13:47:37;3.97;;;3.17;;
13592;SDS011;6867;50.998;4.250;2022-11-20T13:50:04;5.37;;;3.20;;
13592;SDS011;6867;50.998;4.250;2022-11-20T13:52:38;5.07;;;3.43;;
13592;SDS011;6867;50.998;4.250;2022-11-20T13:55:13;5.27;;;3.00;;
13592;SDS011;6867;50.998;4.250;2022-11-20T13:57:53;5.80;;;3.40;;
13592;SDS011;6867;50.998;4.250;2022-11-20T14:00:43;4.27;;;3.00;;
13592;SDS011;6867;50.998;4.250;2022-11-20T14:03:16;4.90;;;2.97;;
13592;SDS011;6867;50.998;4.250;2022-11-20T14:05:47;4.60;;;3.10;;
13592;SDS011;6867;50.998;4.250;2022-11-20T14:08:21;4.23;;;3.13;;
13592;SDS011;6867;50.998;4.250;2022-11-20T14:11:02;4.43;;;3.00;;
13592;SDS011;6867;50.998;4.250;2022-11-20T14:13:31;3.77;;;2.90;;
13592;SDS011;6867;50.998;4.250;2022-11-20T14:15:57;3.63;;;3.17;;
13592;SDS011;6867;50.998;4.250;2022-11-20T14:18:25;3.47;;;2.60;;
13592;SDS011;6867;50.998;4.250;2022-11-20T14:20:52;3.97;;;2.50;;
13592;SDS011;6867;50.998;4.250;2022-11-20T14:23:25;4.63;;;2.30;;
13592;SDS011;6867;50.998;4.250;2022-11-20T14:25:53;3.00;;;2.40;;
13592;SDS011;6867;50.998;4.250;2022-11-20T14:28:21;3.13;;;2.73;;
13592;SDS011;6867;50.998;4.250;2022-11-20T14:30:53;4.33;;;2.93;;
13592;SDS011;6867;50.998;4.250;2022-11-20T14:33:21;4.70;;;2.80;;
13592;SDS011;6867;50.998;4.250;2022-11-20T14:35:51;2.93;;;2.53;;
13592;SDS011;6867;50.998;4.250;2022-11-20T14:38:21;4.47;;;3.10;;
13592;SDS011;6867;50.998;4.250;2022-11-20T14:40:49;3.67;;;3.00;;
13592;SDS011;6867;50.998;4.250;2022-11-20T14:43:17;3.37;;;2.70;;
13592;SDS011;6867;50.998;4.250;2022-11-20T14:45:46;3.80;;;3.10;;
13592;SDS011;6867;50.998;4.250;2022-11-20T14:48:20;6.93;;;3.50;;
13592;SDS011;6867;50.998;4.250;2022-11-20T14:50:50;3.77;;;2.90;;
13592;SDS011;6867;50.998;4.250;2022-11-20T14:53:21;4.17;;;3.20;;
13592;SDS011;6867;50.998;4.250;2022-11-20T14:55:54;3.77;;;3.20;;
13592;SDS011;6867;50.998;4.250;2022-11-20T14:58:23;4.03;;;3.63;;
13592;SDS011;6867;50.998;4.250;2022-11-20T15:00:53;6.20;;;3.53;;
13592;SDS011;6867;50.998;4.250;2022-11-20T15:03:22;5.60;;;3.77;;
13592;SDS011;6867;50.998;4.250;2022-11-20T15:05:50;6.07;;;3.93;;